Arklow Spray — C6VK8 — position and weather

sailwx.info

Track history (hours):
 
Tides and Currents Weather Stations Pressure Air Temp Water Temp Dewpoint Dewpoint Depression Visibility Wind Speed Wind Dir Waves Ship Positions

Arklow Spray

Last reported at 2014-Aug-21 03:16 UTC. Time now 2014-Aug-21 16:04 UTC.
Position N 55°18' E 014°30'.

Length 90 m; draft 4.6 m.

Type: Cargo ship. MMSI: 309914000.

Date/timePositionNaut miles runAvg speedWind from/ knotsBaromVisibWave heightAir tempDewpointWater temp
2014-Aug-21 03:16N 55°18' E 014°30'8 9.7
2014-Aug-21 02:27N 55°12' E 014°21'58 9.7
2014-Aug-20 20:30N 54°45' E 012°52'1010.6
2014-Aug-20 19:33N 54°41' E 012°37'1111.1
2014-Aug-20 18:33N 54°34' E 012°22'1111.5
2014-Aug-20 17:33N 54°25' E 012°10'1111.4
2014-Aug-20 16:33N 54°24' E 011°50'79 8.5
2014-Aug-20 07:16N 54°14' E 009°36'9 8.6
2014-Aug-20 06:10N 54°09' E 009°22'5 8.2
2014-Aug-20 05:33N 54°04' E 009°19'8 8.5
2014-Aug-20 04:33N 53°56' E 009°13'5 4.5
2014-Aug-20 03:33N 53°53' E 009°08'7 6.5
2014-Aug-20 02:33N 53°51' E 008°58'8 7.9
2014-Aug-20 01:33N 53°52' E 008°44'8 7.9
2014-Aug-20 00:33N 53°58' E 008°35'9 8.7
2014-Aug-19 23:32N 53°59' E 008°21'8 7.8
2014-Aug-19 22:33N 53°59' E 008°08'6 5.5
2014-Aug-19 21:28N 53°54' E 008°02'910.3
2014-Aug-19 20:33N 53°46' E 008°11'1111.4
2014-Aug-19 19:33N 53°39' E 008°25'9 8.9
2014-Aug-19 18:33N 53°31' E 008°34'8 8.1
2014-Aug-19 17:33N 53°24' E 008°30'4 0.6
2014-Aug-19 11:16N 53°20' E 008°29'0 0.0
2014-Aug-19 10:25N 53°20' E 008°29'0 0.0
2014-Aug-19 00:22N 53°20' E 008°29'0 0.0
2014-Aug-18 23:31N 53°20' E 008°29'0 0.0
2014-Aug-18 21:25N 53°20' E 008°29'0 0.0
2014-Aug-18 20:28N 53°20' E 008°29'0 0.0
2014-Aug-18 19:31N 53°20' E 008°29'0 0.0
2014-Aug-18 18:33N 53°20' E 008°29'0 0.0
2014-Aug-18 17:23N 53°20' E 008°29'0 0.0
2014-Aug-18 16:26N 53°20' E 008°29'0 0.0
2014-Aug-18 15:32N 53°20' E 008°29'0 0.0
2014-Aug-18 13:31N 53°20' E 008°29'7 7.1
2014-Aug-18 12:33N 53°27' E 008°29'4 4.4
2014-Aug-18 11:33N 53°31' E 008°33'0 0.0
2014-Aug-18 10:30N 53°31' E 008°33'0 0.0
2014-Aug-18 09:33N 53°31' E 008°33'0 0.0
2014-Aug-18 08:33N 53°31' E 008°33'0 0.0
2014-Aug-18 07:33N 53°31' E 008°33'0 0.0
2014-Aug-18 06:32N 53°31' E 008°33'0 0.0
2014-Aug-18 05:32N 53°31' E 008°33'7 7.7
2014-Aug-18 04:33N 53°38' E 008°27'1211.5
2014-Aug-18 03:33N 53°45' E 008°12'1110.4
2014-Aug-18 02:32N 53°51' E 007°58'46 5.7
2014-Aug-17 18:33N 53°22' E 006°58'1110.6
2014-Aug-17 17:33N 53°19' E 007°16'8 8.4
2014-Aug-17 16:33N 53°14' E 007°26'8 7.7
2014-Aug-17 15:32N 53°06' E 007°22'1 0.0
2014-Aug-16 03:33N 53°06' E 007°23'1 0.0
2014-Aug-15 15:14N 53°06' E 007°22'0 0.6
2014-Aug-15 14:33N 53°06' E 007°22'7 6.0
2014-Aug-15 13:24N 53°13' E 007°25'7 8.6
2014-Aug-15 12:33N 53°19' E 007°20'1211.5
2014-Aug-15 11:33N 53°19' E 007°01'1211.5
2014-Aug-15 10:33N 53°29' E 006°50'8 4.1
2014-Aug-15 08:33N 53°34' E 006°39'27 7.9
2014-Aug-15 05:04N 53°39' E 005°53'5 8.5
2014-Aug-15 04:32N 53°37' E 005°46'8 8.6
2014-Aug-15 03:33N 53°35' E 005°33'9 8.6
2014-Aug-15 02:33N 53°32' E 005°19'9 8.7
2014-Aug-15 01:34N 53°29' E 005°05'9 9.4
2014-Aug-15 00:33N 53°25' E 004°51'14510.3
2014-Aug-14 10:29N 51°33' E 002°21'9 7.9
2014-Aug-14 09:21N 51°26' E 002°11'8 8.2
2014-Aug-14 08:20N 51°19' E 002°03'7 8.9
2014-Aug-14 07:33N 51°15' E 001°54'10 9.8
2014-Aug-14 06:34N 51°08' E 001°43'1110.5
2014-Aug-14 05:33N 51°01' E 001°32'4210.4
2014-Aug-14 01:32N 50°30' E 000°48'1111.2
2014-Aug-14 00:33N 50°27' E 000°31'4711.7
2014-Aug-13 20:32N 50°33' W 000°42'1111.7
2014-Aug-13 19:33N 50°38' W 000°58'9 8.9
2014-Aug-13 18:33N 50°45' W 001°07'8 7.9
2014-Aug-13 17:33N 50°49' W 001°18'5 4.6
2014-Aug-13 16:22N 50°53' W 001°24'0 0.0
2014-Aug-13 14:22N 50°53' W 001°24'0 0.0
2014-Aug-13 13:28N 50°53' W 001°24'0 0.0
2014-Aug-13 12:22N 50°53' W 001°24'0 0.0
2014-Aug-13 11:31N 50°53' W 001°24'0 0.0
2014-Aug-13 10:31N 50°53' W 001°24'0 0.0
2014-Aug-13 09:28N 50°53' W 001°24'0 0.0
2014-Aug-13 07:28N 50°53' W 001°24'0 0.0
2014-Aug-13 06:31N 50°53' W 001°24'0 0.0
2014-Aug-13 05:31N 50°53' W 001°24'0 0.0
2014-Aug-13 02:19N 50°53' W 001°24'5 6.6
2014-Aug-13 01:33N 50°49' W 001°18'8 7.7
2014-Aug-13 00:33N 50°44' W 001°27'10 9.6
2014-Aug-12 23:33N 50°38' W 001°39'236 8.7
2014-Aug-11 20:33N 51°26' W 007°46'1110.7
2014-Aug-11 19:33N 51°34' W 007°58'1111.1
2014-Aug-11 18:34N 51°42' W 008°10'10 9.8
2014-Aug-11 17:34N 51°51' W 008°17'2 2.1
2014-Aug-11 16:33N 51°50' W 008°20'0 0.0
2014-Aug-11 15:34N 51°50' W 008°20'0 0.0
2014-Aug-11 14:34N 51°50' W 008°20'0 0.0
2014-Aug-11 13:34N 51°50' W 008°20'0 0.0
2014-Aug-11 12:34N 51°50' W 008°20'0 0.0
2014-Aug-11 11:34N 51°50' W 008°20'0 0.0
2014-Aug-11 10:34N 51°50' W 008°20'0 0.0
2014-Aug-11 09:33N 51°50' W 008°20'0 0.0
2014-Aug-11 08:34N 51°50' W 008°20'0 0.0
2014-Aug-11 07:34N 51°50' W 008°20'0 0.0
2014-Aug-11 06:34N 51°50' W 008°20'0 0.0
2014-Aug-11 05:34N 51°50' W 008°20'0 0.0
2014-Aug-11 04:34N 51°50' W 008°20'0 0.0
2014-Aug-11 03:34N 51°50' W 008°20'  
Track history (hours):
 
Tides and Currents Weather Stations Pressure Air Temp Water Temp Dewpoint Dewpoint Depression Visibility Wind Speed Wind Dir Waves Ship Positions

Arklow Spray

Last reported at 2014-Aug-21 03:16 UTC. Time now 2014-Aug-21 16:04 UTC.
Position N 55°18' E 014°30'.

Length 90 m; draft 4.6 m.

Type: Cargo ship. MMSI: 309914000.

Date/timePositionNaut miles runAvg speedWind from/ knotsBaromVisibWave heightAir tempDewpointWater temp
2014-Aug-21 03:16N 55°18' E 014°30'8 9.7
2014-Aug-21 02:27N 55°12' E 014°21'58 9.7
2014-Aug-20 20:30N 54°45' E 012°52'1010.6
2014-Aug-20 19:33N 54°41' E 012°37'1111.1
2014-Aug-20 18:33N 54°34' E 012°22'1111.5
2014-Aug-20 17:33N 54°25' E 012°10'1111.4
2014-Aug-20 16:33N 54°24' E 011°50'79 8.5
2014-Aug-20 07:16N 54°14' E 009°36'9 8.6
2014-Aug-20 06:10N 54°09' E 009°22'5 8.2
2014-Aug-20 05:33N 54°04' E 009°19'8 8.5
2014-Aug-20 04:33N 53°56' E 009°13'5 4.5
2014-Aug-20 03:33N 53°53' E 009°08'7 6.5
2014-Aug-20 02:33N 53°51' E 008°58'8 7.9
2014-Aug-20 01:33N 53°52' E 008°44'8 7.9
2014-Aug-20 00:33N 53°58' E 008°35'9 8.7
2014-Aug-19 23:32N 53°59' E 008°21'8 7.8
2014-Aug-19 22:33N 53°59' E 008°08'6 5.5
2014-Aug-19 21:28N 53°54' E 008°02'910.3
2014-Aug-19 20:33N 53°46' E 008°11'1111.4
2014-Aug-19 19:33N 53°39' E 008°25'9 8.9
2014-Aug-19 18:33N 53°31' E 008°34'8 8.1
2014-Aug-19 17:33N 53°24' E 008°30'4 0.6
2014-Aug-19 11:16N 53°20' E 008°29'0 0.0
2014-Aug-19 10:25N 53°20' E 008°29'0 0.0
2014-Aug-19 00:22N 53°20' E 008°29'0 0.0
2014-Aug-18 23:31N 53°20' E 008°29'0 0.0
2014-Aug-18 21:25N 53°20' E 008°29'0 0.0
2014-Aug-18 20:28N 53°20' E 008°29'0 0.0
2014-Aug-18 19:31N 53°20' E 008°29'0 0.0
2014-Aug-18 18:33N 53°20' E 008°29'0 0.0
2014-Aug-18 17:23N 53°20' E 008°29'0 0.0
2014-Aug-18 16:26N 53°20' E 008°29'0 0.0
2014-Aug-18 15:32N 53°20' E 008°29'0 0.0
2014-Aug-18 13:31N 53°20' E 008°29'7 7.1
2014-Aug-18 12:33N 53°27' E 008°29'4 4.4
2014-Aug-18 11:33N 53°31' E 008°33'0 0.0
2014-Aug-18 10:30N 53°31' E 008°33'0 0.0
2014-Aug-18 09:33N 53°31' E 008°33'0 0.0
2014-Aug-18 08:33N 53°31' E 008°33'0 0.0
2014-Aug-18 07:33N 53°31' E 008°33'0 0.0
2014-Aug-18 06:32N 53°31' E 008°33'0 0.0
2014-Aug-18 05:32N 53°31' E 008°33'7 7.7
2014-Aug-18 04:33N 53°38' E 008°27'1211.5
2014-Aug-18 03:33N 53°45' E 008°12'1110.4
2014-Aug-18 02:32N 53°51' E 007°58'46 5.7
2014-Aug-17 18:33N 53°22' E 006°58'1110.6
2014-Aug-17 17:33N 53°19' E 007°16'8 8.4
2014-Aug-17 16:33N 53°14' E 007°26'8 7.7
2014-Aug-17 15:32N 53°06' E 007°22'1 0.0
2014-Aug-16 03:33N 53°06' E 007°23'1 0.0
2014-Aug-15 15:14N 53°06' E 007°22'0 0.6
2014-Aug-15 14:33N 53°06' E 007°22'7 6.0
2014-Aug-15 13:24N 53°13' E 007°25'7 8.6
2014-Aug-15 12:33N 53°19' E 007°20'1211.5
2014-Aug-15 11:33N 53°19' E 007°01'1211.5
2014-Aug-15 10:33N 53°29' E 006°50'8 4.1
2014-Aug-15 08:33N 53°34' E 006°39'27 7.9
2014-Aug-15 05:04N 53°39' E 005°53'5 8.5
2014-Aug-15 04:32N 53°37' E 005°46'8 8.6
2014-Aug-15 03:33N 53°35' E 005°33'9 8.6
2014-Aug-15 02:33N 53°32' E 005°19'9 8.7
2014-Aug-15 01:34N 53°29' E 005°05'9 9.4
2014-Aug-15 00:33N 53°25' E 004°51'14510.3
2014-Aug-14 10:29N 51°33' E 002°21'9 7.9
2014-Aug-14 09:21N 51°26' E 002°11'8 8.2
2014-Aug-14 08:20N 51°19' E 002°03'7 8.9
2014-Aug-14 07:33N 51°15' E 001°54'10 9.8
2014-Aug-14 06:34N 51°08' E 001°43'1110.5
2014-Aug-14 05:33N 51°01' E 001°32'4210.4
2014-Aug-14 01:32N 50°30' E 000°48'1111.2
2014-Aug-14 00:33N 50°27' E 000°31'4711.7
2014-Aug-13 20:32N 50°33' W 000°42'1111.7
2014-Aug-13 19:33N 50°38' W 000°58'9 8.9
2014-Aug-13 18:33N 50°45' W 001°07'8 7.9
2014-Aug-13 17:33N 50°49' W 001°18'5 4.6
2014-Aug-13 16:22N 50°53' W 001°24'0 0.0
2014-Aug-13 14:22N 50°53' W 001°24'0 0.0
2014-Aug-13 13:28N 50°53' W 001°24'0 0.0
2014-Aug-13 12:22N 50°53' W 001°24'0 0.0
2014-Aug-13 11:31N 50°53' W 001°24'0 0.0
2014-Aug-13 10:31N 50°53' W 001°24'0 0.0
2014-Aug-13 09:28N 50°53' W 001°24'0 0.0
2014-Aug-13 07:28N 50°53' W 001°24'0 0.0
2014-Aug-13 06:31N 50°53' W 001°24'0 0.0
2014-Aug-13 05:31N 50°53' W 001°24'0 0.0
2014-Aug-13 02:19N 50°53' W 001°24'5 6.6
2014-Aug-13 01:33N 50°49' W 001°18'8 7.7
2014-Aug-13 00:33N 50°44' W 001°27'10 9.6
2014-Aug-12 23:33N 50°38' W 001°39'236 8.7
2014-Aug-11 20:33N 51°26' W 007°46'1110.7
2014-Aug-11 19:33N 51°34' W 007°58'1111.1
2014-Aug-11 18:34N 51°42' W 008°10'10 9.8
2014-Aug-11 17:34N 51°51' W 008°17'2 2.1
2014-Aug-11 16:33N 51°50' W 008°20'0 0.0
2014-Aug-11 15:34N 51°50' W 008°20'0 0.0
2014-Aug-11 14:34N 51°50' W 008°20'0 0.0
2014-Aug-11 13:34N 51°50' W 008°20'0 0.0
2014-Aug-11 12:34N 51°50' W 008°20'0 0.0
2014-Aug-11 11:34N 51°50' W 008°20'0 0.0
2014-Aug-11 10:34N 51°50' W 008°20'0 0.0
2014-Aug-11 09:33N 51°50' W 008°20'0 0.0
2014-Aug-11 08:34N 51°50' W 008°20'0 0.0
2014-Aug-11 07:34N 51°50' W 008°20'0 0.0
2014-Aug-11 06:34N 51°50' W 008°20'0 0.0
2014-Aug-11 05:34N 51°50' W 008°20'0 0.0
2014-Aug-11 04:34N 51°50' W 008°20'0 0.0
2014-Aug-11 03:34N 51°50' W 008°20'  

Dump ship's entire track history